Capron, Illinois
Current Conditions -  °F | °C
As of 12:05 PM on Wednesday 26 Nov 2014 (Local Time) from KJVL Reporting Station
Clear Clear  
Wind Chill: 19°   Ceiling: Unl
Heat Index: 25°   Visibility: 7mi
Dew Point: 21°   Wind: 5mph
Humidity: 86%   Direction: 80°E
Pressure: 30.1"   Gusts: NA
Location:  42.4°N, 88.74°W
Report Text: KJVL 261805Z 08004KT 7SM CLR M04/M06 A3010
Loading
Personal Weather Stations






























Interactive Weather Map New forecast layout! Learn more

10-Day Weather Forecast

Advertisements
Track Severe Weather on mobile